Time;durP1;ratioP1;P1;durP2;ratioP2;P2;SDS_P1;SDS_P2;PMS_P1;PMS_P2;Temp;Humidity;BMP_temperature;BMP_pressure;BME280_temperature;BME280_humidity;BME280_pressure;Samples;Min_cycle;Max_cycle;Signal;HPM_P1;HPM_P2
2023/08/05 00:01:34;;;;;;;3.55;2.75;;;;;;;14.17;100.00;98413.91;4189670;28;20045;-73
2023/08/05 00:03:34;;;;;;;3.70;3.17;;;;;;;14.16;100.00;98409.53;4188300;28;20924;-73
2023/08/05 00:05:37;;;;;;;3.60;2.88;;;;;;;14.16;100.00;98407.53;4190054;28;20074;-73
2023/08/05 00:07:37;;;;;;;5.70;3.03;;;;;;;14.20;100.00;98411.09;4189293;28;20057;-73
2023/08/05 00:09:37;;;;;;;3.97;3.00;;;;;;;14.22;100.00;98408.69;4189372;28;20068;-73
2023/08/05 00:11:38;;;;;;;4.03;2.78;;;;;;;14.20;100.00;98405.53;4188939;28;20045;-73
2023/08/05 00:13:38;;;;;;;5.07;2.83;;;;;;;14.22;100.00;98413.47;4188231;28;20523;-73
2023/08/05 00:15:39;;;;;;;4.75;3.08;;;;;;;14.25;100.00;98407.09;4189594;28;20048;-73
2023/08/05 00:17:39;;;;;;;5.05;2.83;;;;;;;14.30;100.00;98415.81;4189376;28;20058;-73
2023/08/05 00:19:42;;;;;;;3.83;2.80;;;;;;;14.31;100.00;98414.63;4189488;28;20084;-73
2023/08/05 00:21:42;;;;;;;3.60;2.45;;;;;;;14.32;100.00;98419.00;4189427;28;20040;-73
2023/08/05 00:23:42;;;;;;;5.93;2.67;;;;;;;14.30;100.00;98409.44;4188795;28;20109;-73
2023/08/05 00:25:43;;;;;;;5.43;3.50;;;;;;;14.27;100.00;98407.47;4188852;28;20120;-73
2023/08/05 00:27:43;;;;;;;3.10;2.65;;;;;;;14.24;100.00;98405.53;4189001;28;20052;-73
2023/08/05 00:29:46;;;;;;;3.78;2.40;;;;;;;14.19;100.00;98408.72;4189514;28;20124;-73
2023/08/05 00:31:46;;;;;;;4.03;2.95;;;;;;;14.15;100.00;98403.19;4189120;28;20472;-73
2023/08/05 00:33:46;;;;;;;3.97;2.97;;;;;;;14.11;100.00;98404.38;4188817;28;20075;-73
2023/08/05 00:35:47;;;;;;;5.05;3.42;;;;;;;14.03;100.00;98400.81;4189134;28;20057;-73
2023/08/05 00:37:47;;;;;;;3.35;3.05;;;;;;;13.98;100.00;98402.03;4188447;28;20618;-73
2023/08/05 00:39:47;;;;;;;5.18;3.05;;;;;;;13.91;100.00;98398.50;4189480;28;20047;-73
2023/08/05 00:41:47;;;;;;;3.95;3.10;;;;;;;13.87;100.00;98397.69;4189360;28;20052;-73
2023/08/05 00:43:48;;;;;;;4.72;3.35;;;;;;;13.74;100.00;98397.34;4188845;28;20477;-73
2023/08/05 00:45:49;;;;;;;5.38;3.65;;;;;;;13.73;100.00;98396.53;4188783;28;20566;-73
2023/08/05 00:47:50;;;;;;;5.65;3.35;;;;;;;13.72;100.00;98406.06;4189362;28;20057;-73
2023/08/05 00:49:52;;;;;;;5.40;3.47;;;;;;;13.66;100.00;98412.47;4189299;28;20098;-73
2023/08/05 00:51:53;;;;;;;3.05;2.75;;;;;;;13.60;100.00;98403.72;4189416;28;20048;-73
2023/08/05 00:53:53;;;;;;;4.50;3.35;;;;;;;13.59;100.00;98398.56;4188905;28;20041;-73
2023/08/05 00:55:54;;;;;;;6.22;3.20;;;;;;;13.54;100.00;98387.84;4188310;28;20511;-73
2023/08/05 00:57:54;;;;;;;3.58;2.65;;;;;;;13.51;100.00;98392.22;4188908;28;20047;-73
2023/08/05 00:59:55;;;;;;;4.72;2.92;;;;;;;13.40;100.00;98388.66;4189279;28;20135;-73
2023/08/05 01:01:55;;;;;;;3.78;2.60;;;;;;;13.35;100.00;98395.41;4188964;28;20051;-73
2023/08/05 01:03:56;;;;;;;4.70;3.10;;;;;;;13.31;100.00;98391.03;4188363;28;20037;-73
2023/08/05 01:05:58;;;;;;;4.10;3.35;;;;;;;13.28;100.00;98400.97;4188960;28;20318;-73
2023/08/05 01:07:59;;;;;;;5.30;3.70;;;;;;;13.23;100.00;98389.47;4188252;28;20519;-73
2023/08/05 01:10:00;;;;;;;5.70;3.78;;;;;;;13.23;100.00;98395.00;4189096;28;20048;-73
2023/08/05 01:12:00;;;;;;;4.80;4.28;;;;;;;13.23;100.00;98389.47;4188534;28;20052;-73
2023/08/05 01:14:00;;;;;;;6.30;3.92;;;;;;;13.23;100.00;98373.59;4188153;28;20053;-73
2023/08/05 01:16:00;;;;;;;4.72;3.83;;;;;;;13.17;100.00;98377.94;4188247;28;20059;-73
2023/08/05 01:18:01;;;;;;;5.28;3.63;;;;;;;13.17;100.00;98389.84;4188688;28;20152;-73
2023/08/05 01:20:04;;;;;;;6.07;4.05;;;;;;;13.19;100.00;98379.16;4189561;28;20109;-73
2023/08/05 01:22:13;;;;;;;5.50;3.63;;;;;;;13.22;100.00;98383.13;4189252;28;20066;-73
2023/08/05 01:24:30;;;;;;;9.15;4.10;;;;;;;13.28;100.00;98384.31;4191180;28;20044;-73
2023/08/05 01:26:32;;;;;;;6.68;4.32;;;;;;;13.27;100.00;98379.16;4191764;28;20056;-73
2023/08/05 01:28:34;;;;;;;;;;;;;;;13.25;100.00;98381.53;4192264;28;20089;-73
2023/08/05 01:30:36;;;;;;;6.78;3.72;;;;;;;13.29;100.00;98382.31;4192507;28;19916;-73
2023/08/05 01:32:38;;;;;;;6.50;3.67;;;;;;;13.27;100.00;98384.72;4191722;28;20052;-73
2023/08/05 01:34:39;;;;;;;4.93;4.25;;;;;;;13.25;100.00;98389.88;4193118;28;20764;-72
2023/08/05 01:36:40;;;;;;;7.50;3.78;;;;;;;13.21;100.00;98395.41;4191114;28;20554;-72
2023/08/05 01:38:41;;;;;;;6.72;3.35;;;;;;;13.27;100.00;98395.81;4193548;28;20143;-72
2023/08/05 01:40:41;;;;;;;6.65;3.70;;;;;;;13.24;100.00;98408.53;4191296;28;20029;-72
2023/08/05 01:42:42;;;;;;;5.43;3.30;;;;;;;13.26;100.00;98411.69;4191359;28;20094;-73
2023/08/05 01:44:42;;;;;;;5.93;3.67;;;;;;;13.25;100.00;98412.09;4192024;28;20656;-72
2023/08/05 01:46:42;;;;;;;5.05;3.33;;;;;;;13.26;100.00;98411.69;4191317;28;20068;-72
2023/08/05 01:48:42;;;;;;;4.68;3.00;;;;;;;13.26;100.00;98397.03;4191860;28;20464;-72
2023/08/05 01:50:43;;;;;;;5.90;3.33;;;;;;;13.28;100.00;98398.19;4192047;28;20484;-72
2023/08/05 01:52:43;;;;;;;5.38;3.30;;;;;;;13.27;100.00;98396.63;4191644;28;20087;-72
2023/08/05 01:54:43;;;;;;;4.30;2.85;;;;;;;13.27;100.00;98404.16;4191892;28;20048;-72
2023/08/05 01:56:44;;;;;;;3.67;2.80;;;;;;;13.25;100.00;98395.44;4191636;28;20536;-72
2023/08/05 01:58:44;;;;;;;5.35;3.60;;;;;;;13.20;100.00;98391.84;4191668;28;20051;-73
2023/08/05 02:00:51;;;;;;;5.07;3.80;;;;;;;13.16;100.00;98391.03;4191086;28;20102;-72
2023/08/05 02:02:52;;;;;;;6.20;3.90;;;;;;;13.12;100.00;98393.00;4190786;28;20048;-73
2023/08/05 02:04:52;;;;;;;4.15;3.40;;;;;;;13.11;100.00;98396.97;4191946;28;20127;-72
2023/08/05 02:06:52;;;;;;;4.82;3.47;;;;;;;13.06;100.00;98396.56;4191596;28;20130;-73
2023/08/05 02:08:53;;;;;;;5.40;3.58;;;;;;;13.05;100.00;98398.56;4191711;28;20564;-72
2023/08/05 02:10:53;;;;;;;5.10;3.75;;;;;;;13.01;100.00;98399.75;4191653;28;20044;-72
2023/08/05 02:12:53;;;;;;;7.28;4.00;;;;;;;12.96;100.00;98400.94;4190894;28;20398;-73
2023/08/05 02:14:53;;;;;;;4.55;3.50;;;;;;;12.99;100.00;98402.94;4190571;28;20036;-72
2023/08/05 02:16:54;;;;;;;5.00;3.55;;;;;;;12.99;100.00;98404.91;4191381;28;20056;-72
2023/08/05 02:18:54;;;;;;;3.80;3.38;;;;;;;13.00;100.00;98406.50;4191086;28;20442;-72
2023/08/05 02:20:54;;;;;;;4.22;3.30;;;;;;;12.95;100.00;98410.47;4191484;28;20044;-73
2023/08/05 02:22:55;;;;;;;5.65;3.50;;;;;;;12.98;100.00;98401.34;4190873;28;20304;-72
2023/08/05 02:24:55;;;;;;;5.15;3.28;;;;;;;12.94;100.00;98397.78;4191357;28;20502;-72
2023/08/05 02:26:55;;;;;;;4.13;3.60;;;;;;;12.90;100.00;98408.06;4190956;28;20049;-73
2023/08/05 02:28:56;;;;;;;4.88;3.45;;;;;;;12.91;100.00;98393.03;4191405;28;20043;-73
2023/08/05 02:30:56;;;;;;;4.80;3.13;;;;;;;12.94;100.00;98400.56;4191356;28;20041;-72
2023/08/05 02:32:56;;;;;;;4.25;3.40;;;;;;;12.87;100.00;98393.00;4191132;28;20762;-73
2023/08/05 02:34:56;;;;;;;5.55;3.67;;;;;;;12.84;100.00;98384.69;4190136;28;20090;-72
2023/08/05 02:36:57;;;;;;;3.50;3.10;;;;;;;12.82;100.00;98387.03;4191136;28;20137;-72
2023/08/05 02:38:57;;;;;;;7.00;3.47;;;;;;;12.78;100.00;98381.50;4191066;28;20048;-72
2023/08/05 02:40:58;;;;;;;4.13;3.35;;;;;;;12.78;100.00;98384.28;4190279;28;20523;-73
2023/08/05 02:42:58;;;;;;;5.78;3.15;;;;;;;12.78;100.00;98384.28;4190492;28;20391;-72
2023/08/05 02:44:59;;;;;;;5.65;3.35;;;;;;;12.71;100.00;98380.69;4190754;28;20091;-72
2023/08/05 02:46:59;;;;;;;4.78;3.58;;;;;;;12.65;100.00;98388.59;4191087;28;20056;-72
2023/08/05 02:48:59;;;;;;;7.05;3.08;;;;;;;12.62;100.00;98378.28;4190365;28;20383;-73
2023/08/05 02:51:00;;;;;;;5.53;3.38;;;;;;;12.61;100.00;98383.06;4190731;28;20045;-72
2023/08/05 02:53:00;;;;;;;5.22;2.90;;;;;;;12.60;100.00;98380.69;4191043;28;20651;-72
2023/08/05 02:55:01;;;;;;;4.30;3.25;;;;;;;12.56;100.00;98374.31;4190473;28;20115;-72
2023/08/05 02:57:01;;;;;;;3.88;3.35;;;;;;;12.55;100.00;98364.41;4190611;28;20123;-72
2023/08/05 02:59:01;;;;;;;6.03;3.42;;;;;;;12.48;100.00;98367.16;4191203;28;20053;-72
2023/08/05 03:01:07;;;;;;;5.25;2.83;;;;;;;12.46;100.00;98375.88;4190367;28;20060;-72
2023/08/05 03:03:08;;;;;;;4.13;3.00;;;;;;;12.41;100.00;98362.38;4190189;28;20048;-72
2023/08/05 03:05:09;;;;;;;3.85;3.05;;;;;;;12.44;100.00;98367.16;4190649;28;20055;-72
2023/08/05 03:07:09;;;;;;;6.22;3.35;;;;;;;12.39;100.00;98367.53;4190845;28;20131;-72
2023/08/05 03:09:09;;;;;;;4.88;3.40;;;;;;;12.32;100.00;98359.97;4190510;28;20506;-72
2023/08/05 03:11:10;;;;;;;5.95;3.70;;;;;;;12.29;100.00;98346.13;4190644;28;20072;-72
2023/08/05 03:13:10;;;;;;;9.32;3.33;;;;;;;12.23;100.00;98354.03;4189870;28;20107;-72
2023/08/05 03:15:10;;;;;;;4.93;3.67;;;;;;;12.18;100.00;98351.66;4190667;28;20099;-72
2023/08/05 03:17:11;;;;;;;5.72;3.22;;;;;;;12.15;100.00;98357.16;4190408;28;20044;-72
2023/08/05 03:19:11;;;;;;;5.50;3.33;;;;;;;12.13;100.00;98360.34;4190409;28;20082;-72
2023/08/05 03:21:11;;;;;;;4.10;3.03;;;;;;;12.12;100.00;98360.72;4190349;28;20040;-72
2023/08/05 03:23:12;;;;;;;4.07;3.38;;;;;;;12.12;100.00;98360.72;4188927;28;20037;-72
2023/08/05 03:25:12;;;;;;;4.07;3.00;;;;;;;12.11;100.00;98362.72;4189938;28;20041;-72
2023/08/05 03:27:12;;;;;;;4.93;3.28;;;;;;;12.05;100.00;98358.72;4190307;28;20327;-72
2023/08/05 03:29:13;;;;;;;4.07;3.15;;;;;;;12.02;100.00;98346.44;4190014;28;20044;-72
2023/08/05 03:31:13;;;;;;;5.70;3.65;;;;;;;11.95;100.00;98343.63;4190222;28;20143;-72
2023/08/05 03:33:13;;;;;;;4.97;3.72;;;;;;;11.91;100.00;98347.56;4189640;28;20044;-73
2023/08/05 03:35:14;;;;;;;4.63;3.75;;;;;;;11.86;100.00;98347.97;4190497;28;20068;-73
2023/08/05 03:37:14;;;;;;;5.80;3.70;;;;;;;11.82;100.00;98345.94;4189659;28;20044;-72
2023/08/05 03:39:14;;;;;;;5.28;4.22;;;;;;;11.85;100.00;98343.59;4189648;28;20095;-72
2023/08/05 03:41:15;;;;;;;10.68;4.00;;;;;;;11.81;100.00;98355.44;4190641;28;20131;-72
2023/08/05 03:43:15;;;;;;;4.60;3.60;;;;;;;11.78;100.00;98352.66;4189283;28;20530;-72
2023/08/05 03:45:15;;;;;;;5.30;3.40;;;;;;;11.79;100.00;98357.78;4189802;28;20048;-72
2023/08/05 03:47:16;;;;;;;5.53;3.47;;;;;;;11.79;100.00;98362.53;4190120;28;20061;-72
2023/08/05 03:49:16;;;;;;;5.47;3.92;;;;;;;11.73;100.00;98355.78;4189657;28;20052;-72
2023/08/05 03:51:16;;;;;;;4.38;3.03;;;;;;;11.69;100.00;98360.53;4190058;28;20116;-72
2023/08/05 03:53:17;;;;;;;6.47;3.88;;;;;;;11.69;100.00;98360.53;4189623;28;20101;-72
2023/08/05 03:55:19;;;;;;;4.50;3.20;;;;;;;11.67;100.00;98363.69;4189752;28;20480;-72
2023/08/05 03:57:20;;;;;;;5.47;3.92;;;;;;;11.68;100.00;98361.72;4188400;28;20044;-72
2023/08/05 03:59:20;;;;;;;7.00;3.50;;;;;;;11.69;100.00;98360.53;4189875;28;20044;-72
2023/08/05 04:01:22;;;;;;;7.60;3.60;;;;;;;11.71;100.00;98358.16;4190071;28;20041;-72
2023/08/05 04:03:22;;;;;;;5.47;3.67;;;;;;;11.70;100.00;98359.34;4188725;28;20049;-72
2023/08/05 04:05:23;;;;;;;4.50;3.00;;;;;;;11.67;100.00;98366.47;4189910;28;20083;-72
2023/08/05 04:07:24;;;;;;;5.50;3.45;;;;;;;11.66;100.00;98378.69;4189447;28;20504;-72
2023/08/05 04:09:25;;;;;;;4.15;3.10;;;;;;;11.64;100.00;98377.50;4189462;28;20044;-73
2023/08/05 04:11:26;;;;;;;5.00;3.95;;;;;;;11.65;100.00;98401.25;4189748;28;20408;-72
2023/08/05 04:13:28;;;;;;;3.78;3.10;;;;;;;11.64;100.00;98408.78;4188913;28;20058;-72
2023/08/05 04:15:30;;;;;;;4.57;3.20;;;;;;;11.65;100.00;98406.81;4189493;28;20372;-72
2023/08/05 04:17:30;;;;;;;6.50;3.17;;;;;;;11.67;100.00;98412.78;4188245;28;20040;-72
2023/08/05 04:19:32;;;;;;;16.48;3.40;;;;;;;11.70;100.00;98415.56;4189617;28;20087;-72
2023/08/05 04:21:39;;;;;;;7.28;3.25;;;;;;;11.70;100.00;98431.41;4189411;28;20496;-72
2023/08/05 04:23:41;;;;;;;7.00;4.30;;;;;;;11.69;100.00;98436.16;4188375;28;20581;-72
2023/08/05 04:25:45;;;;;;;7.68;3.65;;;;;;;11.69;100.00;98455.53;4189294;28;20514;-72
2023/08/05 04:27:46;;;;;;;4.53;3.30;;;;;;;11.66;100.00;98449.97;4189664;28;20143;-72
2023/08/05 04:29:46;;;;;;;5.47;3.42;;;;;;;11.69;100.00;98447.22;4188916;28;20040;-72
2023/08/05 04:31:46;;;;;;;3.97;3.08;;;;;;;11.73;100.00;98448.03;4188899;28;20208;-72
2023/08/05 04:33:47;;;;;;;5.88;3.53;;;;;;;11.77;100.00;98445.31;4188883;28;20063;-72
2023/08/05 04:35:49;;;;;;;6.25;3.58;;;;;;;11.86;100.00;98450.53;4188693;28;20048;-72
2023/08/05 04:37:49;;;;;;;3.87;3.43;;;;;;;11.94;100.00;98446.63;4188571;28;20045;-72
2023/08/05 04:39:50;;;;;;;4.82;3.30;;;;;;;12.03;100.00;98452.59;4188365;28;20483;-72
2023/08/05 04:41:50;;;;;;;4.00;3.05;;;;;;;12.09;100.00;98448.28;4190810;28;20040;-72
2023/08/05 04:43:51;;;;;;;4.80;3.60;;;;;;;12.13;100.00;98457.41;4190442;28;20032;-72
2023/08/05 04:45:51;;;;;;;5.90;3.65;;;;;;;12.13;100.00;98451.84;4188080;28;20068;-72
2023/08/05 04:47:51;;;;;;;3.65;3.20;;;;;;;12.20;100.00;98456.66;4188110;28;20072;-72
2023/08/05 04:49:52;;;;;;;5.72;3.45;;;;;;;12.22;100.00;98448.72;4188610;28;20124;-72
2023/08/05 04:51:52;;;;;;;6.50;4.10;;;;;;;12.26;100.00;98444.78;4106737;28;20569;-73
2023/08/05 04:53:52;;;;;;;7.18;3.90;;;;;;;12.28;100.00;98452.72;4186322;28;20148;-72
2023/08/05 04:55:52;;;;;;;5.45;3.90;;;;;;;12.27;100.00;98454.69;4187502;28;20085;-72
2023/08/05 04:57:54;;;;;;;5.50;3.85;;;;;;;12.32;100.00;98454.31;4186239;28;20574;-72
2023/08/05 04:59:54;;;;;;;4.45;3.75;;;;;;;12.37;100.00;98447.59;4187190;28;20063;-72
2023/08/05 05:01:54;;;;;;;4.57;3.47;;;;;;;12.38;100.00;98440.88;4187442;28;20041;-72
2023/08/05 05:03:55;;;;;;;4.20;3.50;;;;;;;12.43;100.00;98442.47;4186982;28;20048;-72
2023/08/05 05:05:55;;;;;;;6.68;3.67;;;;;;;12.49;100.00;98438.13;4189699;28;20519;-72
2023/08/05 05:07:56;;;;;;;4.70;3.60;;;;;;;12.49;100.00;98443.66;4187904;28;20127;-72
2023/08/05 05:09:56;;;;;;;5.72;3.83;;;;;;;12.49;100.00;98463.09;4187706;28;20037;-72
2023/08/05 05:12:00;;;;;;;5.80;4.10;;;;;;;12.48;100.00;98462.31;4189046;28;20064;-72
2023/08/05 05:14:00;;;;;;;6.28;4.45;;;;;;;12.50;100.00;98459.94;4186921;28;20049;-72
2023/08/05 05:16:02;;;;;;;5.15;4.13;;;;;;;12.49;100.00;98454.78;4188532;28;20044;-72
2023/08/05 05:18:03;;;;;;;4.72;3.60;;;;;;;12.51;100.00;98455.19;4187949;28;20075;-73
2023/08/05 05:20:04;;;;;;;5.57;3.90;;;;;;;12.54;100.00;98451.63;4188013;28;20029;-73
2023/08/05 05:22:04;;;;;;;5.38;3.40;;;;;;;12.57;100.00;98445.28;4188026;28;20417;-73
2023/08/05 05:24:05;;;;;;;3.75;3.00;;;;;;;12.62;100.00;98448.47;4186755;28;20035;-73
2023/08/05 05:26:06;;;;;;;6.35;3.30;;;;;;;12.70;100.00;98445.72;4187305;28;20121;-72
2023/08/05 05:28:06;;;;;;;5.03;3.22;;;;;;;12.72;100.00;98444.13;4187732;28;20495;-72
2023/08/05 05:30:07;;;;;;;8.23;3.63;;;;;;;12.79;100.00;98435.03;4187940;28;20032;-72
2023/08/05 05:32:07;;;;;;;4.38;3.53;;;;;;;12.83;100.00;98435.84;4188187;28;20064;-73
2023/08/05 05:34:08;;;;;;;5.03;3.78;;;;;;;12.89;100.00;98426.72;4187227;28;20035;-73
2023/08/05 05:36:08;;;;;;;4.88;3.78;;;;;;;12.96;100.00;98428.72;4187656;28;20454;-72
2023/08/05 05:38:08;;;;;;;5.18;3.60;;;;;;;13.03;100.00;98431.50;4188455;28;20036;-72
2023/08/05 05:40:09;;;;;;;3.92;3.20;;;;;;;13.07;100.00;98423.94;4188195;28;20439;-73
2023/08/05 05:42:11;;;;;;;4.38;3.05;;;;;;;13.13;100.00;98421.59;4188578;28;20086;-72
2023/08/05 05:44:11;;;;;;;5.28;2.70;;;;;;;13.19;100.00;98420.00;4187968;28;20364;-72
2023/08/05 05:46:14;;;;;;;3.50;3.20;;;;;;;13.21;100.00;98423.19;4187900;28;20028;-72
2023/08/05 05:48:14;;;;;;;3.10;2.65;;;;;;;13.28;100.00;98417.66;4188182;28;20108;-72
2023/08/05 05:50:16;;;;;;;3.30;3.00;;;;;;;13.35;100.00;98420.44;4186999;28;20830;-72
2023/08/05 05:52:16;;;;;;;3.50;3.20;;;;;;;13.41;100.00;98421.63;4188658;28;20468;-72
2023/08/05 05:54:17;;;;;;;3.83;2.83;;;;;;;13.45;100.00;98429.94;4187452;28;20085;-72
2023/08/05 05:56:18;;;;;;;5.05;3.67;;;;;;;13.45;100.00;98422.41;4187593;28;20055;-72
2023/08/05 05:58:18;;;;;;;4.20;3.70;;;;;;;13.46;100.00;98428.75;4186757;28;20123;-72
2023/08/05 06:00:18;;;;;;;4.13;3.35;;;;;;;13.44;100.00;98422.81;4187766;28;20358;-72
2023/08/05 06:02:18;;;;;;;3.95;3.10;;;;;;;13.46;100.00;98423.19;4188583;28;20156;-72
2023/08/05 06:04:19;;;;;;;6.22;3.53;;;;;;;13.46;100.00;98437.88;4187972;28;20322;-72
2023/08/05 06:06:19;;;;;;;5.15;3.63;;;;;;;13.46;100.00;98432.31;4187132;28;20032;-72
2023/08/05 06:08:19;;;;;;;4.45;3.53;;;;;;;13.47;100.00;98438.66;4187678;28;20040;-72
2023/08/05 06:10:20;;;;;;;4.57;3.28;;;;;;;13.48;100.00;98431.91;4191134;28;20135;-73
2023/08/05 06:12:22;;;;;;;5.50;3.38;;;;;;;13.45;100.00;98435.50;4189871;28;20138;-72
2023/08/05 06:14:23;;;;;;;5.55;4.75;;;;;;;13.46;100.00;98435.09;4191820;28;20049;-73
2023/08/05 06:16:23;;;;;;;5.30;3.72;;;;;;;13.45;100.00;98432.72;4189796;28;20047;-73
2023/08/05 06:18:23;;;;;;;3.95;3.40;;;;;;;13.45;100.00;98430.72;4191051;28;20052;-73
2023/08/05 06:20:24;;;;;;;5.32;3.72;;;;;;;13.45;100.00;98432.72;4190678;28;20079;-73
2023/08/05 06:22:24;;;;;;;5.53;3.97;;;;;;;13.52;100.00;98432.72;4190520;28;20528;-73
2023/08/05 06:24:25;;;;;;;4.20;3.40;;;;;;;13.54;100.00;98426.75;4191026;28;20472;-73
2023/08/05 06:26:26;;;;;;;5.03;3.65;;;;;;;13.59;100.00;98429.94;4191010;28;20104;-73
2023/08/05 06:28:26;;;;;;;6.88;4.88;;;;;;;13.67;100.00;98427.94;4189918;28;20613;-73
2023/08/05 06:30:27;;;;;;;4.85;3.60;;;;;;;13.74;100.00;98422.38;4190904;28;20044;-73
2023/08/05 06:32:27;;;;;;;5.68;3.80;;;;;;;13.83;100.00;98416.38;4190990;28;20306;-73
2023/08/05 06:34:27;;;;;;;5.78;3.72;;;;;;;13.94;100.00;98411.59;4190404;28;20110;-73
2023/08/05 06:36:27;;;;;;;3.58;3.28;;;;;;;14.02;100.00;98404.81;4190461;28;20582;-73
2023/08/05 06:38:28;;;;;;;4.22;3.20;;;;;;;14.17;100.00;98411.91;4132312;28;20127;-73
2023/08/05 06:40:28;;;;;;;4.82;3.30;;;;;;;14.28;100.00;98412.63;4190556;28;20051;-73
2023/08/05 06:42:28;;;;;;;5.70;4.00;;;;;;;14.40;100.00;98407.81;4190082;28;20072;-73
2023/08/05 06:44:29;;;;;;;6.15;3.25;;;;;;;14.45;100.00;98407.41;4190485;28;20209;-73
2023/08/05 06:46:29;;;;;;;5.35;3.42;;;;;;;14.49;100.00;98417.34;4190137;28;20055;-73
2023/08/05 06:48:30;;;;;;;3.97;3.58;;;;;;;14.48;100.00;98410.22;4190244;28;20401;-73
2023/08/05 06:50:33;;;;;;;4.97;3.92;;;;;;;14.53;100.00;98408.97;4191237;28;20044;-73
2023/08/05 06:52:33;;;;;;;;;;;;;;;14.56;100.00;98406.19;4190912;28;20060;-73
2023/08/05 06:54:33;;;;;;;4.82;3.47;;;;;;;14.62;100.00;98406.53;4192204;28;20002;-74
2023/08/05 06:56:34;;;;;;;6.40;3.10;;;;;;;14.67;100.00;98402.53;4191426;28;20053;-73
2023/08/05 06:58:34;;;;;;;4.82;3.40;;;;;;;14.76;100.00;98408.44;4191302;28;20052;-73
2023/08/05 07:00:34;;;;;;;3.55;3.15;;;;;;;14.83;100.00;98398.06;4190657;28;20663;-72
2023/08/05 07:02:35;;;;;;;3.90;3.20;;;;;;;14.93;100.00;98409.53;4189027;28;20048;-73
2023/08/05 07:04:36;;;;;;;5.53;3.80;;;;;;;14.95;100.00;98399.56;4189479;28;20048;-73
2023/08/05 07:06:36;;;;;;;6.10;3.97;;;;;;;14.96;100.00;98400.34;4191245;28;20048;-73
2023/08/05 07:08:36;;;;;;;6.43;3.60;;;;;;;14.99;100.00;98397.56;4190970;28;20075;-73
2023/08/05 07:10:37;;;;;;;6.88;3.90;;;;;;;15.03;100.00;98403.09;4190939;28;20723;-73
2023/08/05 07:12:37;;;;;;;9.73;3.78;;;;;;;15.03;100.00;98406.66;4189827;28;20056;-73
2023/08/05 07:14:39;;;;;;;5.65;3.60;;;;;;;15.05;100.00;98409.81;4190222;28;20048;-73
2023/08/05 07:16:39;;;;;;;5.85;3.97;;;;;;;15.03;100.00;98405.88;4190700;28;20040;-73
2023/08/05 07:18:39;;;;;;;5.45;3.25;;;;;;;15.03;100.00;98387.16;4190136;28;20554;-73
2023/08/05 07:20:40;;;;;;;5.45;3.75;;;;;;;15.12;100.00;98397.84;4190039;28;20054;-73
2023/08/05 07:22:41;;;;;;;4.72;3.65;;;;;;;15.13;100.00;98388.28;4189584;28;20097;-73
2023/08/05 07:24:41;;;;;;;8.88;4.20;;;;;;;15.21;100.00;98400.16;4190647;28;20052;-73
2023/08/05 07:26:41;;;;;;;6.32;3.63;;;;;;;15.26;100.00;98399.72;4190352;28;20092;-73
2023/08/05 07:28:42;;;;;;;6.35;3.95;;;;;;;15.39;100.00;98398.81;4190394;28;20127;-73
2023/08/05 07:30:42;;;;;;;4.45;3.28;;;;;;;15.45;100.00;98397.16;4190153;28;20097;-73
2023/08/05 07:32:42;;;;;;;4.43;3.28;;;;;;;15.58;100.00;98397.44;4189572;28;20048;-73
2023/08/05 07:34:43;;;;;;;5.82;4.10;;;;;;;15.68;100.00;98390.19;4191279;28;20044;-73
2023/08/05 07:36:44;;;;;;;6.68;3.22;;;;;;;15.77;100.00;98393.28;4190552;28;20708;-73
2023/08/05 07:38:45;;;;;;;5.40;3.40;;;;;;;15.85;100.00;98389.22;4190173;28;20431;-73
2023/08/05 07:40:46;;;;;;;3.92;3.20;;;;;;;15.95;100.00;98391.09;4190218;28;20127;-73
2023/08/05 07:42:48;;;;;;;3.70;3.20;;;;;;;15.99;100.00;98393.84;4189300;28;20059;-73
2023/08/05 07:44:51;;;;;;;4.00;3.60;;;;;;;15.97;100.00;98390.66;4190299;28;20036;-73
2023/08/05 07:46:52;;;;;;;3.78;3.35;;;;;;;15.96;100.00;98389.88;4189495;28;20044;-73
2023/08/05 07:48:55;;;;;;;4.88;3.42;;;;;;;15.97;100.00;98385.06;4189893;28;20049;-73
2023/08/05 07:50:55;;;;;;;5.50;3.33;;;;;;;16.01;100.00;98383.06;4189653;28;20041;-73
2023/08/05 07:52:55;;;;;;;4.40;3.63;;;;;;;16.21;100.00;98372.03;4189586;28;20449;-73
2023/08/05 07:54:56;;;;;;;6.30;3.47;;;;;;;16.44;100.00;98360.16;4189526;28;20052;-73
2023/08/05 07:56:58;;;;;;;4.30;3.13;;;;;;;16.64;100.00;98360.31;4189795;28;20545;-73
2023/08/05 07:58:58;;;;;;;;;;;;;;;16.81;100.00;98357.28;4191119;28;20723;-73
2023/08/05 08:00:59;;;;;;;7.77;4.33;;;;;;;16.94;100.00;98357.44;4189305;28;20322;-73
2023/08/05 08:02:59;;;;;;;3.65;3.35;;;;;;;16.82;100.00;98360.84;4188672;28;20583;-73
2023/08/05 08:05:05;;;;;;;3.92;2.97;;;;;;;16.99;100.00;98356.97;4188979;28;20040;-73
2023/08/05 08:07:05;;;;;;;5.22;3.00;;;;;;;17.16;100.00;98359.91;4189891;28;20048;-73
2023/08/05 08:09:05;;;;;;;5.70;3.03;;;;;;;17.23;100.00;98343.81;4190162;28;20437;-73
2023/08/05 08:11:06;;;;;;;5.25;3.20;;;;;;;17.20;100.00;98353.03;4189310;28;20049;-73
2023/08/05 08:13:06;;;;;;;3.47;3.17;;;;;;;17.21;100.00;98345.44;4188993;28;20483;-73
2023/08/05 08:15:07;;;;;;;5.93;2.90;;;;;;;17.24;100.00;98342.59;4189209;28;20052;-73
2023/08/05 08:17:07;;;;;;;4.53;3.55;;;;;;;17.44;100.00;98347.44;4189013;28;20495;-73
2023/08/05 08:19:08;;;;;;;5.72;3.45;;;;;;;17.59;100.00;98338.34;4189393;28;20083;-73
2023/08/05 08:21:08;;;;;;;5.75;3.47;;;;;;;17.71;100.00;98328.59;4189319;28;20159;-73
2023/08/05 08:23:09;;;;;;;4.63;3.30;;;;;;;17.78;100.00;98331.22;4188724;28;20051;-73
2023/08/05 08:25:09;;;;;;;5.88;4.63;;;;;;;17.96;100.00;98326.06;4171348;28;20045;-73
2023/08/05 08:27:09;;;;;;;7.70;5.25;;;;;;;18.13;100.00;98335.31;4186927;28;20064;-73
2023/08/05 08:29:10;;;;;;;4.75;3.22;;;;;;;18.21;100.00;98327.56;4190215;28;20580;-73
2023/08/05 08:31:10;;;;;;;5.82;3.28;;;;;;;18.28;100.00;98323.78;4189398;28;20044;-73
2023/08/05 08:33:10;;;;;;;5.32;3.33;;;;;;;18.23;100.00;98322.31;4189298;28;20463;-73
2023/08/05 08:35:11;;;;;;;5.15;3.17;;;;;;;18.21;100.00;98325.53;4189330;28;20064;-73
2023/08/05 08:37:11;;;;;;;7.43;3.10;;;;;;;18.27;100.00;98327.81;4188515;28;20040;-73
2023/08/05 08:39:11;;;;;;;3.80;3.25;;;;;;;18.31;100.00;98317.34;4188979;28;20036;-73
2023/08/05 08:41:12;;;;;;;4.85;3.25;;;;;;;18.44;100.00;98316.22;4190571;28;20047;-73
2023/08/05 08:43:14;;;;;;;4.07;2.90;;;;;;;18.57;100.00;98312.75;4188955;28;20040;-73
2023/08/05 08:45:15;;;;;;;6.93;2.97;;;;;;;18.66;100.00;98326.97;4187484;28;20432;-73
2023/08/05 08:47:17;;;;;;;8.15;4.38;;;;;;;18.63;100.00;98323.00;4188723;28;20469;-72
2023/08/05 08:49:19;;;;;;;7.88;4.00;;;;;;;18.60;100.00;98325.88;4189184;28;20151;-73
2023/08/05 08:51:21;;;;;;;;;;;;;;;18.49;100.00;98326.13;4189966;28;20070;-72
2023/08/05 08:53:21;;;;;;;3.85;3.38;;;;;;;18.45;100.00;98328.22;4188672;28;20451;-72
2023/08/05 08:55:22;;;;;;;5.32;3.05;;;;;;;18.44;100.00;98329.44;4188907;28;20091;-72
2023/08/05 08:57:22;;;;;;;7.10;3.30;;;;;;;18.35;100.00;98334.84;4188909;28;20105;-72
2023/08/05 08:59:22;;;;;;;4.13;2.50;;;;;;;18.27;100.00;98331.41;4188703;28;20053;-72
2023/08/05 09:01:24;;;;;;;4.88;2.95;;;;;;;18.24;100.00;98326.69;4189637;28;20044;-72
2023/08/05 09:03:28;;;;;;;5.57;2.80;;;;;;;18.23;100.00;98330.72;4187927;28;20048;-72
2023/08/05 09:05:32;;;;;;;4.22;2.67;;;;;;;18.22;100.00;98337.53;4188876;28;20511;-72
2023/08/05 09:07:33;;;;;;;3.47;2.70;;;;;;;18.22;100.00;98326.34;4187786;28;20273;-72
2023/08/05 09:09:33;;;;;;;3.50;2.28;;;;;;;18.23;100.00;98334.28;4190487;28;20044;-72
2023/08/05 09:11:33;;;;;;;4.65;2.70;;;;;;;18.21;100.00;98333.16;4190332;28;20075;-72
2023/08/05 09:13:34;;;;;;;4.47;2.92;;;;;;;18.21;100.00;98339.53;4188233;28;20045;-72
2023/08/05 09:15:39;;;;;;;5.13;3.22;;;;;;;18.21;100.00;98339.53;4189061;28;20140;-72
2023/08/05 09:17:39;;;;;;;7.53;3.55;;;;;;;18.24;100.00;98346.28;4187411;28;20080;-72
2023/08/05 09:19:42;;;;;;;10.43;3.35;;;;;;;18.24;100.00;98340.69;4188082;28;20438;-72
2023/08/05 09:21:42;;;;;;;5.72;3.13;;;;;;;18.24;100.00;98344.28;4188795;28;20057;-72
2023/08/05 09:23:46;;;;;;;12.60;4.38;;;;;;;18.27;100.00;98339.81;4188341;28;20044;-72